地図

経路データ

SID SEASON NUMBER BASIN SUBBASIN NAME ISO_TIME NATURE LAT LON WMO_WIND WMO_PRES WMO_AGENCY TRACK_TYPE DIST2LAND LANDFALL IFLAG USA_AGENCY USA_ATCF_ID USA_LAT USA_LON USA_RECORD USA_STATUS USA_WIND USA_PRES USA_SSHS USA_R34_NE USA_R34_SE USA_R34_SW USA_R34_NW USA_R50_NE USA_R50_SE USA_R50_SW USA_R50_NW USA_R64_NE USA_R64_SE USA_R64_SW USA_R64_NW USA_POCI USA_ROCI USA_RMW USA_EYE TOKYO_LAT TOKYO_LON TOKYO_GRADE TOKYO_WIND TOKYO_PRES TOKYO_R50_DIR TOKYO_R50_LONG TOKYO_R50_SHORT TOKYO_R30_DIR TOKYO_R30_LONG TOKYO_R30_SHORT TOKYO_LAND CMA_LAT CMA_LON CMA_CAT CMA_WIND CMA_PRES HKO_LAT HKO_LON HKO_CAT HKO_WIND HKO_PRES NEWDELHI_LAT NEWDELHI_LON NEWDELHI_GRADE NEWDELHI_WIND NEWDELHI_PRES NEWDELHI_CI NEWDELHI_DP NEWDELHI_POCI REUNION_LAT REUNION_LON REUNION_TYPE REUNION_WIND REUNION_PRES REUNION_TNUM REUNION_CI REUNION_RMW REUNION_R34_NE REUNION_R34_SE REUNION_R34_SW REUNION_R34_NW REUNION_R50_NE REUNION_R50_SE REUNION_R50_SW REUNION_R50_NW REUNION_R64_NE REUNION_R64_SE REUNION_R64_SW REUNION_R64_NW BOM_LAT BOM_LON BOM_TYPE BOM_WIND BOM_PRES BOM_TNUM BOM_CI BOM_RMW BOM_R34_NE BOM_R34_SE BOM_R34_SW BOM_R34_NW BOM_R50_NE BOM_R50_SE BOM_R50_SW BOM_R50_NW BOM_R64_NE BOM_R64_SE BOM_R64_SW BOM_R64_NW BOM_ROCI BOM_POCI BOM_EYE BOM_POS_METHOD BOM_PRES_METHOD NADI_LAT NADI_LON NADI_CAT NADI_WIND NADI_PRES WELLINGTON_LAT WELLINGTON_LON WELLINGTON_WIND WELLINGTON_PRES DS824_LAT DS824_LON DS824_STAGE DS824_WIND DS824_PRES TD9636_LAT TD9636_LON TD9636_STAGE TD9636_WIND TD9636_PRES TD9635_LAT TD9635_LON TD9635_WIND TD9635_PRES TD9635_ROCI NEUMANN_LAT NEUMANN_LON NEUMANN_CLASS NEUMANN_WIND NEUMANN_PRES MLC_LAT MLC_LON MLC_CLASS MLC_WIND MLC_PRES USA_GUST BOM_GUST BOM_GUST_PER REUNION_GUST REUNION_GUST_PER USA_SEAHGT USA_SEARAD_NE USA_SEARAD_SE USA_SEARAD_SW USA_SEARAD_NW STORM_SPEED STORM_DIR
1954219N18086 1954 40 NI BB NOT_NAMED 1954-08-06 18:00:00 TS 18.2000 86.3000 main 183 183 O________O____ jtwc_io IO061954 18.2000 86.3000 -1 18.2000 86.3000 TC 1 69
1954219N18086 1954 40 NI BB NOT_NAMED 1954-08-06 21:00:00 TS 18.2200 86.3625 main 188 179 P________P____ IO061954 18.2200 86.3625 -1 18.2200 86.3625 TC 1 43
1954219N18086 1954 40 NI BB NOT_NAMED 1954-08-07 00:00:00 TS 18.3000 86.4000 main 179 158 O________O____ jtwc_io IO061954 18.3000 86.4000 -1 18.3000 86.4000 TC 25 3 8
1954219N18086 1954 40 NI BB NOT_NAMED 1954-08-07 03:00:00 TS 18.4800 86.4000 main 158 137 P________PO___ IO061954 18.4775 86.4000 -1 18.4775 86.4000 TC 25 18.5000 86.4000 1 4 0
1954219N18086 1954 40 NI BB NOT_NAMED 1954-08-07 06:00:00 TS 18.6997 86.4037 main 137 116 O________OP___ jtwc_io IO061954 18.7000 86.4000 -1 18.7000 86.4000 TC 25 18.6984 86.4187 1 4 4
1954219N18086 1954 40 NI BB NOT_NAMED 1954-08-07 09:00:00 TS 18.8993 86.4472 main 116 98 P________PP___ IO061954 18.9000 86.4500 -1 18.9000 86.4500 TC 25 18.8975 86.4400 1 4 11
1954219N18086 1954 40 NI BB NOT_NAMED 1954-08-07 12:00:00 TS 19.0993 86.4887 main 98 78 O________OP___ jtwc_io IO061954 19.1000 86.5000 -1 19.1000 86.5000 TC 25 19.0978 86.4663 1 4 9
1954219N18086 1954 40 NI BB NOT_NAMED 1954-08-07 15:00:00 TS 19.3000 86.5000 main 78 56 P________PO___ IO061954 19.3000 86.5001 -1 19.3000 86.5001 TC 25 19.3000 86.5000 1 4 0
1954219N18086 1954 40 NI BB NOT_NAMED 1954-08-07 18:00:00 TS 19.5014 86.5143 main 56 35 O________OP___ jtwc_io IO061954 19.5000 86.5000 -1 19.5000 86.5000 TC 25 19.5041 86.5428 1 4 7
1954219N18086 1954 40 NI BB NOT_NAMED 1954-08-07 21:00:00 TS 19.7025 86.5591 main 39 23 P________PP___ IO061954 19.7000 86.5425 -1 19.7000 86.5425 TC 25 19.7075 86.5925 1 4 14
1954219N18086 1954 40 NI BB NOT_NAMED 1954-08-08 00:00:00 TS 19.9024 86.6153 main 23 20 O________OP___ jtwc_io IO061954 19.9000 86.6000 -1 19.9000 86.6000 TC 25 19.9072 86.6459 1 4 14
1954219N18086 1954 40 NI BB NOT_NAMED 1954-08-08 03:00:00 TS 20.1050 86.6667 main 22 0 P________PO___ IO061954 20.1075 86.6500 -1 20.1075 86.6500 TC 25 20.1000 86.7000 1 4 14
1954219N18086 1954 40 NI BB NOT_NAMED 1954-08-08 06:00:00 TS 20.2954 86.7180 main 0 0 O________OP___ jtwc_io IO061954 20.3000 86.7000 -1 20.3000 86.7000 TC 25 20.2863 86.7541 1 4 15
1954219N18086 1954 40 NI BB NOT_NAMED 1954-08-08 09:00:00 TS 20.4550 86.7692 main 0 0 P________PP___ IO061954 20.4500 86.7500 -1 20.4500 86.7500 TC 25 20.4650 86.8075 1 3 17
1954219N18086 1954 40 NI BB NOT_NAMED 1954-08-08 12:00:00 TS 20.6121 86.8191 main 0 0 O________OP___ jtwc_io IO061954 20.6000 86.8000 -1 20.6000 86.8000 TC 25 20.6363 86.8572 1 4 14
1954219N18086 1954 40 NI BB NOT_NAMED 1954-08-08 15:00:00 TS 20.8000 86.8667 main 0 0 P________PO___ IO061954 20.8000 86.8500 -1 20.8000 86.8500 TC 25 20.8000 86.9000 1 4 14
1954219N18086 1954 40 NI BB NOT_NAMED 1954-08-08 18:00:00 TS 20.9826 86.9135 main 10 10 O________OP___ jtwc_io IO061954 21.0000 86.9000 -1 21.0000 86.9000 TC 25 20.9566 86.9338 1 4 13
1954219N18086 1954 40 NI BB NOT_NAMED 1954-08-08 21:00:00 TS 21.1389 86.9543 main 20 10 P________PP___ IO061954 21.1625 86.9500 -1 21.1625 86.9500 TC 25 21.1075 86.9600 1 3 12
1954219N18086 1954 40 NI BB NOT_NAMED 1954-08-09 00:00:00 TS 21.2773 86.9906 main 10 0 O________OP___ jtwc_io IO061954 21.3000 87.0000 -1 21.3000 87.0000 TC 25 21.2547 86.9812 1 3 10
1954219N18086 1954 40 NI BB NOT_NAMED 1954-08-09 03:00:00 NR 21.4000 87.0000 main 0 __________O___ IO061954 -1 TC 21.4000 87.0000 1 2 11

IBTrACS Databaseについて

本データベースは、米国NOAAが公開する1842年以降の世界の熱帯低気圧のベストトラックデータアーカイブInternational Best Track Archive for Climate Stewardship (IBTrACS)を、ウェブで閲覧しやすい形式に変換したものです。

最終更新日:2021-10-08